TimeAKDT,TemperatureF,Dew PointF,Humidity,Sea Level PressureIn,VisibilityMPH,Wind Direction,Wind SpeedMPH,Gust SpeedMPH,PrecipitationIn,Events,Conditions,WindDirDegrees,DateUTC
12:53 AM,39.9,37.0,89,30.12,10.0,ENE,15.0,-,N/A,,Clear,70,2013-07-14 08:53:00
1:53 AM,39.9,37.0,89,30.13,10.0,ENE,12.7,-,N/A,,Partly Cloudy,70,2013-07-14 09:53:00
2:53 AM,39.0,37.0,93,30.12,10.0,ENE,12.7,-,N/A,,Clear,70,2013-07-14 10:53:00
3:53 AM,39.0,37.9,96,30.13,10.0,ENE,12.7,-,N/A,,Partly Cloudy,70,2013-07-14 11:53:00
4:30 AM,39.2,37.4,93,30.13,10.0,ENE,12.7,-,N/A,,Scattered Clouds,70,2013-07-14 12:30:00
4:53 AM,39.9,39.0,97,30.13,10.0,ENE,12.7,-,N/A,,Scattered Clouds,70,2013-07-14 12:53:00
5:53 AM,41.0,37.9,89,30.13,10.0,ENE,13.8,-,N/A,,Scattered Clouds,70,2013-07-14 13:53:00
6:53 AM,43.0,39.0,86,30.12,10.0,ENE,16.1,-,N/A,,Clear,70,2013-07-14 14:53:00
7:53 AM,44.1,39.9,85,30.12,10.0,East,16.1,-,N/A,,Clear,80,2013-07-14 15:53:00
8:53 AM,43.0,39.0,86,30.13,10.0,East,13.8,-,N/A,,Clear,80,2013-07-14 16:53:00
9:53 AM,43.0,39.0,86,30.13,10.0,ENE,17.3,-,N/A,,Clear,70,2013-07-14 17:53:00
9:55 AM,42.8,39.2,87,30.13,10.0,ENE,18.4,-,N/A,,Scattered Clouds,70,2013-07-14 17:55:00
10:53 AM,45.0,39.0,80,30.13,10.0,ENE,18.4,-,N/A,,Clear,70,2013-07-14 18:53:00
11:53 AM,46.0,39.0,76,30.13,10.0,ENE,16.1,-,N/A,,Clear,70,2013-07-14 19:53:00
12:53 PM,46.0,37.9,73,30.14,10.0,ENE,19.6,24.2,N/A,,Clear,70,2013-07-14 20:53:00
1:53 PM,46.9,39.0,74,30.14,10.0,ENE,17.3,-,N/A,,Clear,70,2013-07-14 21:53:00
2:53 PM,48.0,39.0,71,30.14,10.0,ENE,19.6,-,N/A,,Clear,70,2013-07-14 22:53:00
3:53 PM,48.0,37.0,66,30.13,10.0,ENE,21.9,-,N/A,,Clear,70,2013-07-14 23:53:00
4:53 PM,48.9,37.9,66,30.13,10.0,East,19.6,-,N/A,,Clear,80,2013-07-15 00:53:00
5:53 PM,48.9,39.0,69,30.12,10.0,East,23.0,-,N/A,,Clear,80,2013-07-15 01:53:00
6:53 PM,48.9,39.0,69,30.11,10.0,ENE,24.2,27.6,N/A,,Clear,70,2013-07-15 02:53:00
7:53 PM,48.0,39.0,71,30.11,10.0,East,21.9,-,N/A,,Clear,80,2013-07-15 03:53:00
8:53 PM,46.9,39.0,74,30.11,10.0,East,18.4,-,N/A,,Clear,80,2013-07-15 04:53:00
9:53 PM,46.0,39.0,76,30.11,10.0,East,18.4,-,N/A,,Mostly Cloudy,80,2013-07-15 05:53:00
10:53 PM,44.1,39.0,82,30.11,10.0,East,17.3,-,N/A,,Mostly Cloudy,80,2013-07-15 06:53:00
11:53 PM,42.1,37.9,85,30.12,10.0,East,16.1,-,N/A,,Mostly Cloudy,80,2013-07-15 07:53:00